createdAt,value
2022-09-02T00:01:39.627Z,1.20
2022-09-02T00:04:10.664Z,1.65
2022-09-02T00:06:37.455Z,1.30
2022-09-02T00:09:07.468Z,1.90
2022-09-02T00:11:36.047Z,1.45
2022-09-02T00:14:05.970Z,1.40
2022-09-02T00:16:33.598Z,1.15
2022-09-02T00:19:02.635Z,1.20
2022-09-02T00:21:31.096Z,1.38
2022-09-02T00:23:57.766Z,1.33
2022-09-02T00:26:24.752Z,1.50
2022-09-02T00:28:56.159Z,1.40
2022-09-02T00:31:27.681Z,1.30
2022-09-02T00:33:54.987Z,1.58
2022-09-02T00:36:22.043Z,1.33
2022-09-02T00:38:49.338Z,1.50
2022-09-02T00:41:16.116Z,1.40
2022-09-02T00:43:53.663Z,1.20
2022-09-02T00:46:23.805Z,1.92
2022-09-02T00:49:00.464Z,1.25
2022-09-02T00:51:31.993Z,1.30
2022-09-02T00:53:59.574Z,1.20
2022-09-02T00:56:30.201Z,1.20
2022-09-02T00:58:58.134Z,1.00
2022-09-02T01:01:25.617Z,1.27
2022-09-02T01:03:52.810Z,1.20
2022-09-02T01:06:25.226Z,1.40
2022-09-02T01:08:59.496Z,1.27
2022-09-02T01:11:32.518Z,2.17
2022-09-02T01:13:59.717Z,1.45
2022-09-02T01:16:44.162Z,1.23
2022-09-02T01:19:23.107Z,1.30
2022-09-02T01:21:55.225Z,1.35
2022-09-02T01:24:26.261Z,1.45
2022-09-02T01:26:55.650Z,1.15
2022-09-02T01:29:24.075Z,1.40
2022-09-02T01:31:51.710Z,1.40
2022-09-02T01:34:18.711Z,1.10
2022-09-02T01:36:45.670Z,1.25
2022-09-02T01:39:13.643Z,1.40
2022-09-02T01:41:40.359Z,1.50
2022-09-02T01:44:07.619Z,1.30
2022-09-02T01:46:35.538Z,1.33
2022-09-02T01:49:02.245Z,1.40
2022-09-02T01:51:29.210Z,1.20
2022-09-02T01:53:56.057Z,1.30
2022-09-02T01:56:22.918Z,1.10
2022-09-02T01:58:49.599Z,1.25
2022-09-02T02:01:17.015Z,1.20
2022-09-02T02:03:44.246Z,1.25
2022-09-02T02:06:14.106Z,1.00
2022-09-02T02:08:41.324Z,1.30
2022-09-02T02:11:08.948Z,2.45
2022-09-02T02:13:36.248Z,1.17
2022-09-02T02:16:03.534Z,1.40
2022-09-02T02:18:31.179Z,1.20
2022-09-02T02:20:57.892Z,1.50
2022-09-02T02:23:24.743Z,1.20
2022-09-02T02:25:51.455Z,1.25
2022-09-02T02:28:18.345Z,1.30
2022-09-02T02:30:45.211Z,1.40
2022-09-02T02:33:12.038Z,1.10
2022-09-02T02:35:38.704Z,1.15
2022-09-02T02:38:05.517Z,1.10
2022-09-02T02:40:33.031Z,1.25
2022-09-02T02:42:59.759Z,1.27
2022-09-02T02:45:26.753Z,1.20
2022-09-02T02:47:54.405Z,1.20
2022-09-02T02:50:23.479Z,1.20
2022-09-02T02:52:50.905Z,1.40
2022-09-02T02:55:18.196Z,1.50
2022-09-02T02:57:46.088Z,1.35
2022-09-02T03:00:22.614Z,1.20
2022-09-02T03:02:49.969Z,1.33
2022-09-02T03:05:17.951Z,1.48
2022-09-02T03:07:44.733Z,1.30
2022-09-02T03:10:13.262Z,1.33
2022-09-02T03:12:41.087Z,1.20
2022-09-02T03:15:09.842Z,1.10
2022-09-02T03:17:36.577Z,1.30
2022-09-02T03:20:05.552Z,1.20
2022-09-02T03:22:32.275Z,1.42
2022-09-02T03:24:59.160Z,1.20
2022-09-02T03:27:26.023Z,1.35
2022-09-02T03:29:52.940Z,1.20
2022-09-02T03:32:19.675Z,1.23
2022-09-02T03:34:46.416Z,1.40
2022-09-02T03:37:13.519Z,1.40
2022-09-02T03:39:41.045Z,1.70
2022-09-02T03:42:08.287Z,1.60
2022-09-02T03:44:46.475Z,1.33
2022-09-02T03:47:15.283Z,1.30
2022-09-02T03:49:43.720Z,1.67
2022-09-02T03:52:10.917Z,1.45
2022-09-02T03:54:37.650Z,1.20
2022-09-02T03:57:04.616Z,1.60
2022-09-02T03:59:32.666Z,1.30
2022-09-02T04:02:01.964Z,1.38
2022-09-02T04:04:29.626Z,1.33
2022-09-02T04:06:57.779Z,1.20
2022-09-02T04:09:24.700Z,1.98
2022-09-02T04:11:51.771Z,1.48
2022-09-02T04:14:18.549Z,1.20
2022-09-02T04:16:45.298Z,1.35
2022-09-02T04:19:12.209Z,1.33
2022-09-02T04:21:39.980Z,1.55
2022-09-02T04:24:09.461Z,1.45
2022-09-02T04:26:36.508Z,1.50
2022-09-02T04:29:09.267Z,1.48
2022-09-02T04:31:36.790Z,1.40
2022-09-02T04:34:04.189Z,1.50
2022-09-02T04:36:31.107Z,1.55
2022-09-02T04:38:58.609Z,1.42
2022-09-02T04:41:28.850Z,1.40
2022-09-02T04:43:57.437Z,1.50
2022-09-02T04:46:34.241Z,1.98
2022-09-02T04:49:03.508Z,1.40
2022-09-02T04:51:30.394Z,1.33
2022-09-02T04:53:57.450Z,1.52
2022-09-02T04:56:27.361Z,1.50
2022-09-02T04:58:54.593Z,1.20
2022-09-02T05:01:25.543Z,1.50
2022-09-02T05:03:54.176Z,1.20
2022-09-02T05:06:26.395Z,1.50
2022-09-02T05:08:54.859Z,1.30
2022-09-02T05:11:24.071Z,1.42
2022-09-02T05:13:51.737Z,1.05
2022-09-02T05:16:25.470Z,1.50
2022-09-02T05:18:53.222Z,1.42
2022-09-02T05:21:20.977Z,1.50
2022-09-02T05:23:47.637Z,1.40
2022-09-02T05:26:14.434Z,1.70
2022-09-02T05:28:41.896Z,1.67
2022-09-02T05:31:15.226Z,1.30
2022-09-02T05:33:42.470Z,1.48
2022-09-02T05:36:20.525Z,1.75
2022-09-02T05:38:48.173Z,1.55
2022-09-02T05:41:18.039Z,1.70
2022-09-02T05:43:45.867Z,1.40
2022-09-02T05:46:17.769Z,1.60
2022-09-02T05:49:04.420Z,1.10
2022-09-02T05:51:32.398Z,1.63
2022-09-02T05:54:00.516Z,1.30
2022-09-02T05:56:28.268Z,1.20
2022-09-02T05:58:57.358Z,0.85
2022-09-02T06:01:24.174Z,1.60
2022-09-02T06:03:52.507Z,1.10
2022-09-02T06:06:23.065Z,1.08
2022-09-02T06:08:51.111Z,1.05
2022-09-02T06:11:18.482Z,1.20
2022-09-02T06:13:45.225Z,1.45
2022-09-02T06:16:20.767Z,1.10
2022-09-02T06:18:48.347Z,1.40
2022-09-02T06:21:16.131Z,1.63
2022-09-02T06:23:43.679Z,1.30
2022-09-02T06:26:13.321Z,1.25
2022-09-02T06:28:41.221Z,1.20
2022-09-02T06:31:16.944Z,1.15
2022-09-02T06:33:45.817Z,1.27
2022-09-02T06:36:18.146Z,1.33
2022-09-02T06:38:48.382Z,1.27
2022-09-02T06:41:19.641Z,1.30
2022-09-02T06:43:46.315Z,1.45
2022-09-02T06:46:23.545Z,1.38
2022-09-02T06:48:50.554Z,1.20
2022-09-02T06:51:23.751Z,1.88
2022-09-02T06:53:50.642Z,1.20
2022-09-02T06:56:18.224Z,1.23
2022-09-02T06:58:45.125Z,1.38
2022-09-02T07:01:22.179Z,1.42
2022-09-02T07:04:07.493Z,1.25
2022-09-02T07:09:06.444Z,1.60
2022-09-02T07:11:33.390Z,1.50
2022-09-02T07:14:01.866Z,1.15
2022-09-02T07:16:31.093Z,1.60
2022-09-02T07:18:58.538Z,1.48
2022-09-02T07:21:25.288Z,1.52
2022-09-02T07:23:52.139Z,1.30
2022-09-02T07:26:18.835Z,1.38
2022-09-02T07:28:47.160Z,1.80
2022-09-02T07:31:16.323Z,1.70
2022-09-02T07:33:45.103Z,1.38
2022-09-02T07:36:16.887Z,1.50
2022-09-02T07:38:43.662Z,1.92
2022-09-02T07:41:10.721Z,1.60
2022-09-02T07:43:41.180Z,1.48
2022-09-02T07:46:08.078Z,1.73
2022-09-02T07:48:35.849Z,1.55
2022-09-02T07:51:02.981Z,1.52
2022-09-02T07:53:30.261Z,1.40
2022-09-02T07:55:57.051Z,1.42
2022-09-02T07:58:23.820Z,1.23
2022-09-02T08:00:51.164Z,1.30
2022-09-02T08:03:18.023Z,1.63
2022-09-02T08:05:47.274Z,1.15
2022-09-02T08:08:20.419Z,1.20
2022-09-02T08:10:52.216Z,1.40
2022-09-02T08:13:20.071Z,1.33
2022-09-02T08:15:46.902Z,1.35
2022-09-02T08:18:21.824Z,1.27
2022-09-02T08:20:49.684Z,1.30
2022-09-02T08:23:36.068Z,1.02
2022-09-02T08:26:05.779Z,1.20
2022-09-02T08:28:32.642Z,1.33
2022-09-02T08:30:59.594Z,1.10
2022-09-02T08:33:26.545Z,1.42
2022-09-02T08:35:53.383Z,1.45
2022-09-02T08:38:22.170Z,1.30
2022-09-02T08:40:51.239Z,1.40
2022-09-02T08:43:39.998Z,1.38
2022-09-02T08:46:11.361Z,1.20
2022-09-02T08:48:45.928Z,1.20
2022-09-02T08:51:37.425Z,1.10
2022-09-02T08:54:24.632Z,1.17
2022-09-02T08:56:51.858Z,1.33
2022-09-02T08:59:22.821Z,1.20
2022-09-02T09:02:09.751Z,1.10
2022-09-02T09:05:11.758Z,1.27
2022-09-02T09:08:03.276Z,1.40
2022-09-02T09:10:54.927Z,1.35
2022-09-02T09:13:43.275Z,1.30
2022-09-02T09:16:12.726Z,1.33
2022-09-02T09:18:44.888Z,1.60
2022-09-02T09:21:12.159Z,1.40
2022-09-02T09:23:40.169Z,1.33
2022-09-02T09:26:17.344Z,1.70
2022-09-02T09:28:49.036Z,1.13
2022-09-02T09:31:19.861Z,1.15
2022-09-02T09:34:06.690Z,1.20
2022-09-02T09:36:45.063Z,1.10
2022-09-02T09:39:25.304Z,1.52
2022-09-02T09:41:54.590Z,1.55
2022-09-02T09:44:46.128Z,1.05
2022-09-02T09:47:22.893Z,1.10
2022-09-02T09:49:52.508Z,1.35
2022-09-02T09:52:27.545Z,1.65
2022-09-02T09:55:14.513Z,1.20
2022-09-02T09:57:45.603Z,1.10
2022-09-02T10:00:16.380Z,1.55
2022-09-02T10:02:56.917Z,1.30
2022-09-02T10:05:26.736Z,1.20
2022-09-02T10:08:03.367Z,1.08
2022-09-02T10:10:33.188Z,1.00
2022-09-02T10:13:24.966Z,1.08
2022-09-02T10:16:13.452Z,1.15
2022-09-02T10:19:02.627Z,1.08
2022-09-02T10:21:39.892Z,1.27
2022-09-02T10:24:15.321Z,1.10
2022-09-02T10:26:53.970Z,1.10
2022-09-02T10:29:30.008Z,1.10
2022-09-02T10:32:12.484Z,1.25
2022-09-02T10:34:57.648Z,0.95
2022-09-02T10:40:10.582Z,1.10
2022-09-02T10:42:56.156Z,1.10
2022-09-02T10:45:44.088Z,1.35
2022-09-02T10:48:28.697Z,1.02
2022-09-02T10:51:04.751Z,1.33
2022-09-02T10:54:10.951Z,1.20
2022-09-02T10:56:47.213Z,1.13
2022-09-02T10:59:20.526Z,1.23
2022-09-02T11:01:55.081Z,1.33
2022-09-02T11:04:40.593Z,0.80
2022-09-02T11:07:14.225Z,1.58
2022-09-02T11:09:48.067Z,0.90
2022-09-02T11:12:23.170Z,1.33
2022-09-02T11:15:27.206Z,1.25
2022-09-02T11:20:44.347Z,1.15
2022-09-02T11:23:37.365Z,1.23
2022-09-02T11:26:16.240Z,1.10
2022-09-02T11:29:01.723Z,1.15
2022-09-02T11:31:43.141Z,1.30
2022-09-02T11:34:21.543Z,1.00
2022-09-02T11:36:49.178Z,1.20
2022-09-02T11:39:21.894Z,1.10
2022-09-02T11:42:32.814Z,1.10
2022-09-02T11:45:06.246Z,1.02
2022-09-02T11:47:46.327Z,1.08
2022-09-02T11:50:18.649Z,1.00
2022-09-02T11:52:51.959Z,1.00
2022-09-02T11:55:29.321Z,1.17
2022-09-02T11:57:58.497Z,1.00
2022-09-02T12:00:29.314Z,1.20
2022-09-02T12:03:39.178Z,1.20
2022-09-02T12:06:11.607Z,1.00
2022-09-02T12:08:43.074Z,1.00
2022-09-02T12:11:30.781Z,1.23
2022-09-02T12:14:00.023Z,0.85
2022-09-02T12:16:29.454Z,1.13
2022-09-02T12:18:58.294Z,1.45
2022-09-02T12:21:26.723Z,1.33
2022-09-02T12:23:56.646Z,1.10
2022-09-02T12:26:30.359Z,1.15
2022-09-02T12:29:20.528Z,1.13
2022-09-02T12:31:53.584Z,1.02
2022-09-02T12:34:20.252Z,1.10
2022-09-02T12:36:56.971Z,1.10
2022-09-02T12:39:29.201Z,1.08
2022-09-02T12:42:01.621Z,1.00
2022-09-02T12:44:47.164Z,1.23
2022-09-02T12:47:19.844Z,0.98
2022-09-02T12:50:05.033Z,1.20
2022-09-02T12:52:34.539Z,1.20
2022-09-02T12:55:11.209Z,1.20
2022-09-02T12:57:43.707Z,0.80
2022-09-02T13:00:16.167Z,1.00
2022-09-02T13:03:01.343Z,1.10
2022-09-02T13:06:01.918Z,1.02
2022-09-02T13:08:46.943Z,0.90
2022-09-02T13:14:33.462Z,1.27
2022-09-02T13:17:36.245Z,0.95
2022-09-02T13:20:40.513Z,1.20
2022-09-02T13:23:19.107Z,1.23
2022-09-02T13:26:47.805Z,1.10
2022-09-02T13:29:23.934Z,1.17
2022-09-02T13:32:12.758Z,0.90
2022-09-02T13:34:44.570Z,1.20
2022-09-02T13:37:39.001Z,1.20
2022-09-02T13:40:23.681Z,1.20
2022-09-02T13:42:56.275Z,1.30
2022-09-02T13:45:25.948Z,1.05
2022-09-02T13:47:54.956Z,1.13
2022-09-02T13:50:27.070Z,1.00
2022-09-02T13:55:57.257Z,1.00
2022-09-02T13:58:53.982Z,1.20
2022-09-02T14:01:23.004Z,1.00
2022-09-02T14:03:55.225Z,1.08
2022-09-02T14:06:30.855Z,1.13
2022-09-02T14:09:01.449Z,1.00
2022-09-02T14:11:29.834Z,1.08
2022-09-02T14:13:57.747Z,1.20
2022-09-02T14:16:36.225Z,0.93
2022-09-02T14:19:08.791Z,1.10
2022-09-02T14:21:37.372Z,0.93
2022-09-02T14:24:04.885Z,1.10
2022-09-02T14:26:41.381Z,1.10
2022-09-02T14:29:08.876Z,1.10
2022-09-02T14:31:37.934Z,1.00
2022-09-02T14:34:06.456Z,1.10
2022-09-02T14:36:38.551Z,1.10
2022-09-02T14:39:17.099Z,1.10
2022-09-02T14:41:45.797Z,1.15
2022-09-02T14:44:34.701Z,1.00
2022-09-02T14:47:07.618Z,1.20
2022-09-02T14:49:36.824Z,1.20
2022-09-02T14:52:16.038Z,1.10
2022-09-02T14:54:45.465Z,1.15
2022-09-02T14:57:28.669Z,1.00
2022-09-02T15:00:01.453Z,0.98
2022-09-02T15:02:28.110Z,1.10
2022-09-02T15:05:07.397Z,1.05
2022-09-02T15:07:34.369Z,1.00
2022-09-02T15:10:01.291Z,1.02
2022-09-02T15:12:30.491Z,1.15
2022-09-02T15:14:57.968Z,1.02
2022-09-02T15:17:25.744Z,1.23
2022-09-02T15:19:52.488Z,0.90
2022-09-02T15:22:20.299Z,1.00
2022-09-02T15:24:48.673Z,1.15
2022-09-02T15:27:15.831Z,2.42
2022-09-02T15:29:48.565Z,1.35
2022-09-02T15:32:15.439Z,0.90
2022-09-02T15:34:42.335Z,1.05
2022-09-02T15:37:12.859Z,0.93
2022-09-02T15:39:40.342Z,1.15
2022-09-02T15:42:07.283Z,1.10
2022-09-02T15:44:34.155Z,1.10
2022-09-02T15:47:00.964Z,0.90
2022-09-02T15:49:27.857Z,0.95
2022-09-02T15:51:55.327Z,1.10
2022-09-02T15:54:24.286Z,1.13
2022-09-02T15:56:56.019Z,0.90
2022-09-02T15:59:23.465Z,1.05
2022-09-02T16:01:55.103Z,1.30
2022-09-02T16:04:22.317Z,0.98
2022-09-02T16:06:52.401Z,0.93
2022-09-02T16:09:19.766Z,1.35
2022-09-02T16:11:49.722Z,1.02
2022-09-02T16:14:20.479Z,1.00
2022-09-02T16:16:49.245Z,1.05
2022-09-02T16:19:16.400Z,1.52
2022-09-02T16:21:43.076Z,1.10
2022-09-02T16:24:10.090Z,1.17
2022-09-02T16:26:39.474Z,0.98
2022-09-02T16:29:09.999Z,1.00
2022-09-02T16:31:40.627Z,1.20
2022-09-02T16:34:10.316Z,1.10
2022-09-02T16:36:40.327Z,1.17
2022-09-02T16:39:08.448Z,1.23
2022-09-02T16:41:43.962Z,1.00
2022-09-02T16:44:16.982Z,1.15
2022-09-02T16:46:45.050Z,1.05
2022-09-02T16:49:14.511Z,1.10
2022-09-02T16:51:41.369Z,0.93
2022-09-02T16:54:09.601Z,1.30
2022-09-02T16:56:44.794Z,1.20
2022-09-02T16:59:12.871Z,1.08
2022-09-02T17:01:41.046Z,0.95
2022-09-02T17:04:09.022Z,1.27
2022-09-02T17:06:39.934Z,1.00
2022-09-02T17:09:09.081Z,1.30
2022-09-02T17:11:39.712Z,1.65
2022-09-02T17:14:16.504Z,1.20
2022-09-02T17:16:49.022Z,1.00
2022-09-02T17:19:21.848Z,1.00
2022-09-02T17:21:54.106Z,1.30
2022-09-02T17:24:23.392Z,1.35
2022-09-02T17:26:52.253Z,1.10
2022-09-02T17:29:47.573Z,1.15
2022-09-02T17:32:08.393Z,0.93
2022-09-02T17:34:35.118Z,1.20
2022-09-02T17:37:01.981Z,1.13
2022-09-02T17:39:28.731Z,1.20
2022-09-02T17:41:55.583Z,1.15
2022-09-02T17:44:42.656Z,1.27
2022-09-02T17:47:20.141Z,1.08
2022-09-02T17:49:47.963Z,1.17
2022-09-02T17:52:23.401Z,1.05
2022-09-02T17:54:52.351Z,1.35
2022-09-02T17:57:43.165Z,1.27
2022-09-02T18:00:17.471Z,1.30
2022-09-02T18:03:13.073Z,1.20
2022-09-02T18:05:44.152Z,1.10
2022-09-02T18:08:28.858Z,1.35
2022-09-02T18:10:58.510Z,1.60
2022-09-02T18:13:31.892Z,1.10
2022-09-02T18:16:20.911Z,1.20
2022-09-02T18:19:00.104Z,1.95
2022-09-02T18:21:41.576Z,1.55
2022-09-02T18:24:19.815Z,1.80
2022-09-02T18:27:15.715Z,1.80
2022-09-02T18:30:00.498Z,2.30
2022-09-02T18:32:45.725Z,2.08
2022-09-02T18:41:05.838Z,4.45
2022-09-02T18:43:50.943Z,3.53
2022-09-02T18:46:19.498Z,2.20
2022-09-02T18:48:53.295Z,2.00
2022-09-02T18:51:42.122Z,1.80
2022-09-02T18:54:22.852Z,1.48
2022-09-02T18:56:55.759Z,1.40
2022-09-02T18:59:43.245Z,1.70
2022-09-02T19:02:23.910Z,1.63
2022-09-02T19:04:50.726Z,1.70
2022-09-02T19:07:38.691Z,1.17
2022-09-02T19:10:06.273Z,1.23
2022-09-02T19:12:36.315Z,1.42
2022-09-02T19:15:08.049Z,1.60
2022-09-02T19:17:34.961Z,1.42
2022-09-02T19:20:02.049Z,1.60
2022-09-02T19:22:30.516Z,1.83
2022-09-02T19:25:02.986Z,1.50
2022-09-02T19:27:33.831Z,1.42
2022-09-02T19:30:12.504Z,1.50
2022-09-02T19:32:43.945Z,2.08
2022-09-02T19:35:19.150Z,1.70
2022-09-02T19:37:47.964Z,1.42
2022-09-02T19:40:20.201Z,1.55
2022-09-02T19:42:47.252Z,1.65
2022-09-02T19:45:16.381Z,1.65
2022-09-02T19:48:06.427Z,1.30
2022-09-02T19:50:30.340Z,1.10
2022-09-02T19:52:57.349Z,1.70
2022-09-02T19:55:24.182Z,1.50
2022-09-02T19:57:53.315Z,1.58
2022-09-02T20:00:20.357Z,1.50
2022-09-02T20:02:47.016Z,1.60
2022-09-02T20:05:14.375Z,1.60
2022-09-02T20:07:41.784Z,1.60
2022-09-02T20:10:09.508Z,1.92
2022-09-02T20:12:36.518Z,2.17
2022-09-02T20:15:04.969Z,1.65
2022-09-02T20:17:32.421Z,1.60
2022-09-02T20:20:01.322Z,2.10
2022-09-02T20:22:30.186Z,1.77
2022-09-02T20:24:58.246Z,1.83
2022-09-02T20:28:04.735Z,1.70
2022-09-02T20:30:36.096Z,1.63
2022-09-02T20:33:13.954Z,1.30
2022-09-02T20:35:43.369Z,1.70
2022-09-02T20:38:48.883Z,1.80
2022-09-02T20:41:21.597Z,1.80
2022-09-02T20:43:54.639Z,1.90
2022-09-02T20:46:39.357Z,1.50
2022-09-02T20:49:21.578Z,1.85
2022-09-02T20:51:53.386Z,1.90
2022-09-02T20:54:48.661Z,2.10
2022-09-02T21:00:09.721Z,1.77
2022-09-02T21:02:51.269Z,1.58
2022-09-02T21:05:24.390Z,1.60
2022-09-02T21:08:03.911Z,1.65
2022-09-02T21:10:39.015Z,1.50
2022-09-02T21:13:11.613Z,1.70
2022-09-02T21:16:00.222Z,1.70
2022-09-02T21:18:41.705Z,1.90
2022-09-02T21:21:51.131Z,1.70
2022-09-02T21:24:38.849Z,1.70
2022-09-02T21:27:14.699Z,1.70
2022-09-02T21:29:59.010Z,1.95
2022-09-02T21:32:42.149Z,1.50
2022-09-02T21:35:21.419Z,1.65
2022-09-02T21:37:53.065Z,1.83
2022-09-02T21:40:21.704Z,1.98
2022-09-02T21:43:14.713Z,1.60
2022-09-02T21:46:08.162Z,1.88
2022-09-02T21:49:01.015Z,1.90
2022-09-02T21:51:41.205Z,1.85
2022-09-02T21:54:49.279Z,1.50
2022-09-02T21:57:32.863Z,1.83
2022-09-02T22:00:08.225Z,1.88
2022-09-02T22:02:52.594Z,2.63
2022-09-02T22:05:28.899Z,2.30
2022-09-02T22:08:17.373Z,2.30
2022-09-02T22:11:09.983Z,2.05
2022-09-02T22:13:41.983Z,1.90
2022-09-02T22:16:19.007Z,2.20
2022-09-02T22:18:55.447Z,1.83
2022-09-02T22:21:47.173Z,2.15
2022-09-02T22:24:22.440Z,1.92
2022-09-02T22:26:53.370Z,2.00
2022-09-02T22:29:29.084Z,2.10
2022-09-02T22:32:00.486Z,2.08
2022-09-02T22:34:30.290Z,2.13
2022-09-02T22:37:02.713Z,2.38
2022-09-02T22:39:44.521Z,2.08
2022-09-02T22:42:29.562Z,2.42
2022-09-02T22:45:27.076Z,2.25
2022-09-02T22:48:18.897Z,2.20
2022-09-02T22:51:10.410Z,2.30
2022-09-02T22:53:37.103Z,2.05
2022-09-02T22:56:11.451Z,2.22
2022-09-02T22:59:11.011Z,2.13
2022-09-02T23:01:57.292Z,2.15
2022-09-02T23:04:47.553Z,2.10
2022-09-02T23:07:14.461Z,2.28
2022-09-02T23:09:41.183Z,2.25
2022-09-02T23:12:40.296Z,2.10
2022-09-02T23:15:27.305Z,2.40
2022-09-02T23:18:09.680Z,2.42
2022-09-02T23:20:45.382Z,2.25
2022-09-02T23:23:39.109Z,2.33
2022-09-02T23:26:26.022Z,1.95
2022-09-02T23:29:16.606Z,2.67
2022-09-02T23:31:47.563Z,2.25
2022-09-02T23:34:34.452Z,2.03
2022-09-02T23:37:25.198Z,2.17
2022-09-02T23:40:22.566Z,2.13
2022-09-02T23:42:50.186Z,2.10
2022-09-02T23:45:21.978Z,2.30
2022-09-02T23:48:03.616Z,2.40
2022-09-02T23:50:36.085Z,2.40
2022-09-02T23:53:11.939Z,2.53
2022-09-02T23:56:10.081Z,2.30
2022-09-02T23:59:00.832Z,2.60
